Time;durP1;ratioP1;P1;durP2;ratioP2;P2;SDS_P1;SDS_P2;PMS_P1;PMS_P2;Temp;Humidity;BMP_temperature;BMP_pressure;BME280_temperature;BME280_humidity;BME280_pressure;Samples;Min_cycle;Max_cycle;Signal;HPM_P1;HPM_P2
2024/01/03 00:01:00;;;;;;;33.42;4.03;;;12.80;99.90;;;;;;7381209;19;20011;-77
2024/01/03 00:03:31;;;;;;;28.92;3.72;;;12.80;99.90;;;;;;7379716;19;20105;-76
2024/01/03 00:06:03;;;;;;;34.42;4.95;;;12.80;99.90;;;;;;7380712;19;20020;-77
2024/01/03 00:08:36;;;;;;;33.58;4.63;;;12.70;99.90;;;;;;7379299;19;20078;-76
2024/01/03 00:11:05;;;;;;;33.13;5.05;;;12.80;99.90;;;;;;7406527;19;20014;-76
2024/01/03 00:14:04;;;;;;;34.00;4.50;;;12.80;99.90;;;;;;7379243;19;20021;-77
2024/01/03 00:16:33;;;;;;;23.15;3.92;;;12.90;99.90;;;;;;7381708;19;20011;-77
2024/01/03 00:19:03;;;;;;;27.52;3.85;;;12.90;99.90;;;;;;7381670;19;20082;-76
2024/01/03 00:21:36;;;;;;;27.10;3.47;;;12.90;99.90;;;;;;7382794;19;20007;-77
2024/01/03 00:24:08;;;;;;;39.53;4.30;;;12.90;99.90;;;;;;7383372;19;20062;-76
2024/01/03 00:26:37;;;;;;;33.90;4.03;;;12.90;99.90;;;;;;7381367;19;20014;-76
2024/01/03 00:29:07;;;;;;;27.90;4.65;;;13.00;99.90;;;;;;7402284;19;20365;-77
2024/01/03 00:31:41;;;;;;;31.17;4.15;;;13.10;99.90;;;;;;7378973;19;20006;-77
2024/01/03 00:34:18;;;;;;;39.88;4.40;;;13.00;99.90;;;;;;7379617;19;20010;-76
2024/01/03 00:36:50;;;;;;;28.98;4.40;;;13.20;99.90;;;;;;7379585;19;20054;-75
2024/01/03 00:39:20;;;;;;;;;;;12.90;99.90;;;;;;7381105;19;20007;-75
2024/01/03 00:41:49;;;;;;;33.58;4.10;;;12.90;99.90;;;;;;7379797;19;19911;-76
2024/01/03 00:44:18;;;;;;;28.73;3.78;;;12.90;99.90;;;;;;7400886;19;20011;-76
2024/01/03 00:46:46;;;;;;;31.42;3.67;;;13.10;99.90;;;;;;7377538;19;20007;-75
2024/01/03 00:49:15;;;;;;;22.77;4.57;;;13.20;99.90;;;;;;7383961;19;20006;-76
2024/01/03 00:51:48;;;;;;;24.08;4.50;;;13.20;99.90;;;;;;7384260;19;20013;-77
2024/01/03 00:54:21;;;;;;;36.70;4.10;;;13.10;99.90;;;;;;7383194;19;20066;-76
2024/01/03 00:56:52;;;;;;;31.48;4.45;;;13.00;99.90;;;;;;7383873;19;20023;-77
2024/01/03 00:59:20;;;;;;;23.52;4.47;;;12.90;99.90;;;;;;7402160;19;20071;-76
2024/01/03 01:01:52;;;;;;;24.05;3.88;;;12.90;99.90;;;;;;7377957;19;20070;-76
2024/01/03 01:04:20;;;;;;;31.23;4.10;;;13.10;99.90;;;;;;7378287;19;20066;-76
2024/01/03 01:06:49;;;;;;;35.28;4.28;;;13.10;99.90;;;;;;7378185;19;20252;-77
2024/01/03 01:09:21;;;;;;;32.50;4.75;;;13.30;99.90;;;;;;7377811;19;20167;-76
2024/01/03 01:11:52;;;;;;;31.58;4.55;;;13.30;99.90;;;;;;7378362;19;20366;-76
2024/01/03 01:14:20;;;;;;;27.48;4.40;;;13.20;99.90;;;;;;7400052;19;20082;-76
2024/01/03 01:16:52;;;;;;;40.00;4.72;;;13.30;99.90;;;;;;7381681;19;20010;-76
2024/01/03 01:19:21;;;;;;;43.20;4.80;;;13.00;99.90;;;;;;7377923;19;20475;-75
2024/01/03 01:21:50;;;;;;;39.38;4.43;;;13.10;99.90;;;;;;7377364;19;20059;-76
2024/01/03 01:24:21;;;;;;;36.17;3.20;;;13.20;99.90;;;;;;7378471;19;20015;-76
2024/01/03 01:26:50;;;;;;;34.20;4.43;;;13.20;99.90;;;;;;7378137;19;20023;-77
2024/01/03 01:29:19;;;;;;;19.88;3.30;;;13.20;99.90;;;;;;7398126;19;20304;-76
2024/01/03 01:31:47;;;;;;;30.48;3.95;;;13.20;99.90;;;;;;7378998;19;20081;-76
2024/01/03 01:34:17;;;;;;;44.88;4.68;;;13.20;99.90;;;;;;7379726;19;20006;-76
2024/01/03 01:36:46;;;;;;;29.15;4.88;;;13.20;99.90;;;;;;7379635;19;20015;-75
2024/01/03 01:39:15;;;;;;;32.75;4.32;;;13.20;99.90;;;;;;7379031;19;20039;-76
2024/01/03 01:41:46;;;;;;;40.10;4.30;;;13.20;99.90;;;;;;7379900;19;20301;-76
2024/01/03 01:44:15;;;;;;;30.70;3.95;;;13.10;99.90;;;;;;7401149;19;20377;-76
2024/01/03 01:46:45;;;;;;;32.72;4.10;;;13.00;99.90;;;;;;7378304;19;20027;-75
2024/01/03 01:49:16;;;;;;;32.50;4.93;;;13.20;99.90;;;;;;7376146;19;20278;-77
2024/01/03 01:51:45;;;;;;;43.53;5.18;;;13.20;99.90;;;;;;7378553;19;20010;-76
2024/01/03 01:54:15;;;;;;;34.20;3.80;;;13.10;99.90;;;;;;7377430;19;20078;-75
2024/01/03 01:56:46;;;;;;;33.00;5.28;;;13.00;99.90;;;;;;7377661;19;20228;-75
2024/01/03 01:59:15;;;;;;;;;;;13.20;99.90;;;;;;7398962;19;20050;-76
2024/01/03 02:01:44;;;;;;;30.25;4.55;;;13.00;99.90;;;;;;7378056;19;19974;-75
2024/01/03 02:04:13;;;;;;;32.28;4.38;;;13.20;99.90;;;;;;7376784;19;20073;-76
2024/01/03 02:06:41;;;;;;;38.95;4.60;;;13.20;99.90;;;;;;7376905;19;20066;-75
2024/01/03 02:09:10;;;;;;;38.45;4.38;;;13.10;99.90;;;;;;7380150;19;20079;-75
2024/01/03 02:11:48;;;;;;;37.70;4.30;;;13.30;99.90;;;;;;7386891;19;20031;-76
2024/01/03 02:14:17;;;;;;;27.65;4.10;;;13.40;99.90;;;;;;7409282;19;20087;-76
2024/01/03 02:16:46;;;;;;;36.58;3.60;;;13.40;99.90;;;;;;7384910;19;20248;-76
2024/01/03 02:19:14;;;;;;;29.67;4.35;;;13.40;99.90;;;;;;7383550;19;20023;-75
2024/01/03 02:21:46;;;;;;;28.30;4.60;;;13.40;99.90;;;;;;7383961;19;20011;-76
2024/01/03 02:24:14;;;;;;;30.88;4.63;;;13.10;99.90;;;;;;7385658;19;20011;-76
2024/01/03 02:26:43;;;;;;;40.22;4.45;;;13.30;99.90;;;;;;7387224;19;20131;-76
2024/01/03 02:29:11;;;;;;;38.25;4.72;;;13.20;99.90;;;;;;7404063;19;20013;-75
2024/01/03 02:31:40;;;;;;;38.63;4.65;;;13.10;99.90;;;;;;7383869;19;20006;-76
2024/01/03 02:34:09;;;;;;;46.92;5.32;;;13.10;99.90;;;;;;7384097;19;20690;-76
2024/01/03 02:36:38;;;;;;;23.40;3.65;;;13.30;99.90;;;;;;7383829;19;20058;-76
2024/01/03 02:39:10;;;;;;;39.50;4.95;;;13.20;99.90;;;;;;7384662;19;20059;-75
2024/01/03 02:41:38;;;;;;;46.40;4.82;;;13.20;99.90;;;;;;7384717;19;20031;-76
2024/01/03 02:44:07;;;;;;;27.85;4.25;;;13.20;99.90;;;;;;7406292;19;20011;-76
2024/01/03 02:46:36;;;;;;;31.35;4.10;;;13.10;99.90;;;;;;7386420;19;20035;-75
2024/01/03 02:49:05;;;;;;;35.20;4.53;;;13.20;99.90;;;;;;7380850;19;20314;-76
2024/01/03 02:51:34;;;;;;;43.63;5.35;;;13.40;99.90;;;;;;7384980;19;20390;-75
2024/01/03 02:54:02;;;;;;;29.63;4.13;;;13.20;99.90;;;;;;7390801;19;20023;-75
2024/01/03 02:56:39;;;;;;;31.98;5.15;;;13.30;99.90;;;;;;7412792;19;20010;-76
2024/01/03 02:59:08;;;;;;;38.42;4.82;;;13.30;99.90;;;;;;7392420;19;20011;-77
2024/01/03 03:01:36;;;;;;;37.58;4.43;;;13.40;99.90;;;;;;7390334;19;20074;-77
2024/01/03 03:04:05;;;;;;;33.75;4.78;;;13.20;99.90;;;;;;7385066;19;20023;-76
2024/01/03 03:06:34;;;;;;;30.63;4.38;;;13.20;99.90;;;;;;7385329;19;20015;-76
2024/01/03 03:09:04;;;;;;;34.97;4.68;;;13.30;99.90;;;;;;7384488;19;20010;-77
2024/01/03 03:11:35;;;;;;;38.70;5.43;;;13.10;99.90;;;;;;7405757;19;20031;-76
2024/01/03 03:14:03;;;;;;;38.67;4.25;;;13.10;99.90;;;;;;7381828;19;20207;-77
2024/01/03 03:16:32;;;;;;;33.13;4.63;;;13.30;99.90;;;;;;7383695;19;20473;-76
2024/01/03 03:19:03;;;;;;;33.53;4.82;;;13.20;99.90;;;;;;7381895;19;20016;-76
2024/01/03 03:21:32;;;;;;;46.10;5.53;;;13.40;99.90;;;;;;7380692;19;20023;-75
2024/01/03 03:24:00;;;;;;;40.75;5.13;;;13.10;99.90;;;;;;7382336;19;20023;-77
2024/01/03 03:26:30;;;;;;;41.42;5.20;;;13.10;99.90;;;;;;7404704;19;20090;-76
2024/01/03 03:29:02;;;;;;;31.02;4.70;;;13.30;99.90;;;;;;7379864;19;20019;-75
2024/01/03 03:31:30;;;;;;;41.30;5.05;;;13.30;99.90;;;;;;7386017;19;20086;-77
2024/01/03 03:34:00;;;;;;;37.92;5.80;;;13.20;99.90;;;;;;7381630;19;20292;-77
2024/01/03 03:36:29;;;;;;;93.57;7.03;;;13.30;99.90;;;;;;7385095;19;20369;-80
2024/01/03 03:38:57;;;;;;;87.78;6.00;;;13.20;99.90;;;;;;7385447;19;20014;-78
2024/01/03 03:41:26;;;;;;;47.65;4.35;;;12.90;99.90;;;;;;7405358;19;20382;-77
2024/01/03 03:43:55;;;;;;;27.30;3.90;;;12.80;99.90;;;;;;7386055;19;20212;-78
2024/01/03 03:46:26;;;;;;;24.55;3.63;;;12.80;99.90;;;;;;7384992;19;20016;-78
2024/01/03 03:48:55;;;;;;;15.05;2.05;;;12.90;99.90;;;;;;7384842;19;20002;-78
2024/01/03 03:51:23;;;;;;;15.95;2.35;;;13.00;99.90;;;;;;7384847;19;20119;-78
2024/01/03 03:53:52;;;;;;;22.08;2.10;;;13.00;99.90;;;;;;7383999;19;20398;-78
2024/01/03 03:56:25;;;;;;;12.25;1.98;;;12.80;99.90;;;;;;7406053;19;20014;-77
2024/01/03 03:58:54;;;;;;;18.15;2.67;;;12.80;99.90;;;;;;7381843;19;20063;-77
2024/01/03 04:01:22;;;;;;;13.35;1.80;;;12.70;99.90;;;;;;7382091;19;20572;-77
2024/01/03 04:03:54;;;;;;;27.33;2.97;;;12.70;99.90;;;;;;7382801;19;20006;-76
2024/01/03 04:06:24;;;;;;;15.95;2.15;;;12.80;99.90;;;;;;7381024;19;20078;-76
2024/01/03 04:08:54;;;;;;;18.10;2.72;;;12.80;99.90;;;;;;7382417;19;20007;-78
2024/01/03 04:11:23;;;;;;;16.58;2.25;;;13.00;99.90;;;;;;7403252;19;20023;-77
2024/01/03 04:13:52;;;;;;;17.38;2.50;;;13.00;99.90;;;;;;7379800;19;20091;-77
2024/01/03 04:16:21;;;;;;;18.75;2.17;;;12.80;99.90;;;;;;7381819;19;20084;-76
2024/01/03 04:18:50;;;;;;;16.63;2.53;;;12.70;99.90;;;;;;7381033;19;20066;-77
2024/01/03 04:21:24;;;;;;;20.27;2.40;;;12.70;99.90;;;;;;7381203;19;20346;-77
2024/01/03 04:23:54;;;;;;;20.83;3.15;;;12.80;99.90;;;;;;7382922;19;20421;-77
2024/01/03 04:26:22;;;;;;;18.65;3.15;;;12.70;99.90;;;;;;7401566;19;20010;-78
2024/01/03 04:28:51;;;;;;;23.83;3.45;;;12.70;99.90;;;;;;7379658;19;20038;-76
2024/01/03 04:31:20;;;;;;;20.50;2.95;;;12.60;99.90;;;;;;7380381;19;20028;-76
2024/01/03 04:33:49;;;;;;;22.92;3.72;;;12.80;99.90;;;;;;7380417;19;20027;-77
2024/01/03 04:36:21;;;;;;;25.83;3.53;;;12.70;99.90;;;;;;7382234;19;20052;-78
2024/01/03 04:38:49;;;;;;;21.17;3.30;;;12.70;99.90;;;;;;7378354;19;20007;-77
2024/01/03 04:41:19;;;;;;;25.45;3.22;;;12.60;99.90;;;;;;7400898;19;20489;-76
2024/01/03 04:43:48;;;;;;;26.10;3.40;;;12.80;99.90;;;;;;7381859;19;20015;-76
2024/01/03 04:46:16;;;;;;;21.77;2.95;;;12.80;99.90;;;;;;7379586;19;20264;-76
2024/01/03 04:48:45;;;;;;;19.35;3.00;;;12.80;99.90;;;;;;7379437;19;20011;-76
2024/01/03 04:51:14;;;;;;;23.63;2.75;;;12.90;99.90;;;;;;7381832;19;20014;-76
2024/01/03 04:53:45;;;;;;;23.42;3.05;;;12.70;99.90;;;;;;7383994;19;20016;-77
2024/01/03 04:56:14;;;;;;;18.42;2.15;;;12.80;99.90;;;;;;7401388;19;20018;-77
2024/01/03 04:58:42;;;;;;;11.68;2.63;;;12.80;99.90;;;;;;7382474;19;20023;-77
2024/01/03 05:01:11;;;;;;;10.45;2.13;;;12.40;99.90;;;;;;7381876;19;20413;-77
2024/01/03 05:03:40;;;;;;;18.60;2.00;;;12.20;99.90;;;;;;7382216;19;20027;-77
2024/01/03 05:06:08;;;;;;;18.63;2.22;;;12.50;99.90;;;;;;7380138;19;20358;-77
2024/01/03 05:08:37;;;;;;;10.60;2.03;;;12.30;99.90;;;;;;7400128;19;20018;-77
2024/01/03 05:11:09;;;;;;;10.95;1.65;;;12.50;99.90;;;;;;7376412;19;20006;-77
2024/01/03 05:13:38;;;;;;;9.70;1.55;;;12.40;99.90;;;;;;7379841;19;20011;-76
2024/01/03 05:16:08;;;;;;;17.13;1.83;;;12.60;99.90;;;;;;7379926;19;20090;-77
2024/01/03 05:18:37;;;;;;;10.82;2.03;;;12.60;99.90;;;;;;7379576;19;20072;-77
2024/01/03 05:21:07;;;;;;;19.40;2.47;;;12.60;99.90;;;;;;7381051;19;20011;-77
2024/01/03 05:23:35;;;;;;;17.05;2.25;;;12.70;99.90;;;;;;7400400;19;20373;-78
2024/01/03 05:26:04;;;;;;;13.52;2.47;;;12.70;99.90;;;;;;7380957;19;20097;-78
2024/01/03 05:28:35;;;;;;;18.95;2.22;;;12.70;99.90;;;;;;7378546;19;20089;-77
2024/01/03 05:31:04;;;;;;;17.00;3.10;;;12.70;99.90;;;;;;7377687;19;20017;-77
2024/01/03 05:33:33;;;;;;;19.75;2.38;;;12.70;99.90;;;;;;7380818;19;20002;-77
2024/01/03 05:36:02;;;;;;;19.30;2.72;;;12.70;99.90;;;;;;7382063;19;20011;-77
2024/01/03 05:38:30;;;;;;;22.02;2.85;;;12.80;99.90;;;;;;7400154;19;20007;-78
2024/01/03 05:40:59;;;;;;;26.35;2.63;;;12.80;99.90;;;;;;7376971;19;20094;-76
2024/01/03 05:43:28;;;;;;;23.88;2.85;;;12.70;99.90;;;;;;7378531;19;20410;-76
2024/01/03 05:46:00;;;;;;;10.98;2.28;;;12.50;99.90;;;;;;7379216;19;20006;-77
2024/01/03 05:48:29;;;;;;;19.73;2.58;;;12.70;99.90;;;;;;7381435;19;20062;-77
2024/01/03 05:50:57;;;;;;;82.22;7.00;;;12.50;99.90;;;;;;7383005;19;20018;-75
2024/01/03 05:53:28;;;;;;;382.63;16.98;;;12.50;99.90;;;;;;7403073;19;20113;-76
2024/01/03 05:55:57;;;;;;;31.60;3.40;;;12.60;99.90;;;;;;7378269;19;20097;-77
2024/01/03 05:58:29;;;;;;;21.77;3.35;;;12.70;99.90;;;;;;7378515;19;20010;-77
2024/01/03 06:01:00;;;;;;;29.70;3.40;;;12.60;99.90;;;;;;7378599;19;20014;-77
2024/01/03 06:03:29;;;;;;;29.48;3.58;;;12.50;99.90;;;;;;7377541;19;20098;-77
2024/01/03 06:05:58;;;;;;;18.42;3.70;;;12.30;99.90;;;;;;7379648;19;20065;-77
2024/01/03 06:08:28;;;;;;;22.60;3.08;;;12.60;99.90;;;;;;7401169;19;20010;-77
2024/01/03 06:10:57;;;;;;;24.95;3.17;;;12.20;99.90;;;;;;7376272;19;20078;-77
2024/01/03 06:13:26;;;;;;;29.45;3.75;;;12.30;99.90;;;;;;7376521;19;20361;-78
2024/01/03 06:15:55;;;;;;;26.75;4.70;;;12.40;99.90;;;;;;7379813;19;20020;-78
2024/01/03 06:18:29;;;;;;;25.45;3.80;;;12.50;99.90;;;;;;7377388;19;20146;-76
2024/01/03 06:20:57;;;;;;;25.25;3.65;;;12.50;99.90;;;;;;7378680;19;20383;-77
2024/01/03 06:23:26;;;;;;;32.20;4.03;;;12.50;99.90;;;;;;7400686;19;20020;-76
2024/01/03 06:25:55;;;;;;;24.25;3.72;;;12.60;99.90;;;;;;7376050;19;20007;-76
2024/01/03 06:28:24;;;;;;;23.08;3.50;;;12.70;99.90;;;;;;7377524;19;20028;-76
2024/01/03 06:30:52;;;;;;;34.40;4.38;;;12.70;99.90;;;;;;7380789;19;20445;-77
2024/01/03 06:33:23;;;;;;;32.28;4.22;;;12.70;99.90;;;;;;7379770;19;20067;-76
2024/01/03 06:35:55;;;;;;;24.10;3.47;;;12.60;99.90;;;;;;7381067;19;20014;-78
2024/01/03 06:38:23;;;;;;;43.97;5.00;;;12.40;99.90;;;;;;7401651;19;20074;-77
2024/01/03 06:40:53;;;;;;;27.65;3.85;;;12.60;99.90;;;;;;7376828;19;20074;-78
2024/01/03 06:43:21;;;;;;;24.67;3.33;;;12.60;99.90;;;;;;7380015;19;20031;-77
2024/01/03 06:45:50;;;;;;;24.67;3.00;;;12.70;99.90;;;;;;7379577;19;20418;-77
2024/01/03 06:48:19;;;;;;;26.30;3.85;;;12.70;99.90;;;;;;7378690;19;20020;-77
2024/01/03 06:50:48;;;;;;;25.50;3.20;;;12.60;99.90;;;;;;7397741;19;20054;-77
2024/01/03 06:53:19;;;;;;;24.30;3.40;;;12.60;99.90;;;;;;7377642;19;20036;-78
2024/01/03 06:55:49;;;;;;;25.73;3.42;;;12.70;99.90;;;;;;7378455;19;20007;-79
2024/01/03 06:58:21;;;;;;;23.15;2.88;;;12.70;99.90;;;;;;7382429;19;20074;-77
2024/01/03 07:00:50;;;;;;;33.58;4.35;;;12.70;99.90;;;;;;7392369;19;20015;-77
2024/01/03 07:03:19;;;;;;;21.63;3.70;;;12.50;99.90;;;;;;7389388;19;20007;-78
2024/01/03 07:05:47;;;;;;;35.15;4.70;;;12.40;99.90;;;;;;7416802;19;20010;-78
2024/01/03 07:08:19;;;;;;;24.90;4.15;;;12.40;99.90;;;;;;7391282;19;20045;-77
2024/01/03 07:10:48;;;;;;;25.27;4.32;;;12.60;99.90;;;;;;7385244;19;20007;-76
2024/01/03 07:13:16;;;;;;;31.48;4.47;;;12.50;99.90;;;;;;7382343;19;20026;-78
2024/01/03 07:15:45;;;;;;;44.35;5.70;;;12.40;99.90;;;;;;7383785;19;20019;-77
2024/01/03 07:18:14;;;;;;;27.38;4.45;;;12.40;99.90;;;;;;7385355;19;20027;-77
2024/01/03 07:20:42;;;;;;;22.05;4.35;;;12.40;99.90;;;;;;7404078;19;20082;-77
2024/01/03 07:23:13;;;;;;;39.42;5.10;;;12.60;99.90;;;;;;7386645;19;20011;-78
2024/01/03 07:25:44;;;;;;;24.10;3.63;;;12.80;99.90;;;;;;7387028;19;20014;-76
2024/01/03 07:28:13;;;;;;;;;;;12.80;99.90;;;;;;7384643;19;20052;-77
2024/01/03 07:30:41;;;;;;;38.80;5.20;;;12.70;99.90;;;;;;7384543;19;19907;-77
2024/01/03 07:33:12;;;;;;;44.20;4.45;;;12.80;99.90;;;;;;7386503;19;20027;-76
2024/01/03 07:35:41;;;;;;;44.28;5.82;;;12.70;99.90;;;;;;7409331;19;20010;-78
2024/01/03 07:38:10;;;;;;;38.13;4.93;;;12.60;99.90;;;;;;7386120;19;20006;-76
2024/01/03 07:40:39;;;;;;;37.00;5.45;;;12.50;99.90;;;;;;7383202;19;20009;-77
2024/01/03 07:43:10;;;;;;;39.45;4.97;;;12.40;99.90;;;;;;7381716;19;20090;-77
2024/01/03 07:45:39;;;;;;;50.15;5.20;;;12.50;99.90;;;;;;7383923;19;20006;-78
2024/01/03 07:48:08;;;;;;;36.05;4.88;;;12.50;99.90;;;;;;7385508;19;20066;-77
2024/01/03 07:50:37;;;;;;;33.75;4.30;;;12.60;99.90;;;;;;7401399;19;20020;-77
2024/01/03 07:53:07;;;;;;;30.58;4.60;;;12.70;99.90;;;;;;7383355;19;20018;-77
2024/01/03 07:55:37;;;;;;;30.58;4.40;;;12.50;99.90;;;;;;7382961;19;20013;-77
2024/01/03 07:58:06;;;;;;;32.03;4.22;;;12.40;99.90;;;;;;7383101;19;20003;-76
2024/01/03 08:00:37;;;;;;;29.13;4.30;;;12.30;99.90;;;;;;7380828;19;20010;-77
2024/01/03 08:03:07;;;;;;;33.22;3.97;;;12.40;99.90;;;;;;7381258;19;20370;-77
2024/01/03 08:05:35;;;;;;;29.38;3.95;;;12.50;99.90;;;;;;7403373;19;20327;-77
2024/01/03 08:08:13;;;;;;;41.45;4.90;;;12.60;99.90;;;;;;7382033;19;20010;-83
2024/01/03 08:10:44;;;;;;;46.05;5.72;;;12.50;99.90;;;;;;7386268;19;20010;-80
2024/01/03 08:13:12;;;;;;;46.30;5.93;;;12.60;99.90;;;;;;7386436;19;20011;-79
2024/01/03 08:15:56;;;;;;;38.50;4.88;;;12.70;99.90;;;;;;7386320;19;20301;-82
2024/01/03 08:18:26;;;;;;;45.33;5.75;;;12.90;99.90;;;;;;7384292;19;20007;-81
2024/01/03 08:20:55;;;;;;;49.00;4.70;;;13.00;99.90;;;;;;7410251;19;20035;-80
2024/01/03 08:23:24;;;;;;;43.65;6.03;;;13.00;99.90;;;;;;7388997;19;20011;-79
2024/01/03 08:26:01;;;;;;;45.25;6.07;;;13.00;99.90;;;;;;7385180;19;20417;-84
2024/01/03 08:28:43;;;;;;;;;;;;;;;;;;;;;
2024/01/03 08:31:55;;;;;;;;;;;;;;;;;;;;;
2024/01/03 08:34:53;;;;;;;35.50;4.78;;;13.00;99.90;;;;;;7407914;19;20202;-83
2024/01/03 08:37:22;;;;;;;41.65;5.53;;;12.90;99.90;;;;;;7383235;19;20010;-81
2024/01/03 08:42:45;;;;;;;53.75;6.22;;;12.90;99.90;;;;;;7379418;19;20036;-82
2024/01/03 08:45:14;;;;;;;52.50;6.18;;;12.90;99.90;;;;;;7380372;19;20006;-79
2024/01/03 08:47:48;;;;;;;30.85;5.15;;;12.90;99.90;;;;;;7406649;19;20016;-80
2024/01/03 08:53:33;;;;;;;44.47;5.67;;;12.90;99.90;;;;;;7405066;19;20025;-81
2024/01/03 08:56:05;;;;;;;48.13;5.80;;;12.80;99.90;;;;;;7382580;19;20003;-79
2024/01/03 08:58:33;;;;;;;51.97;5.90;;;12.80;99.90;;;;;;7387920;19;20032;-79
2024/01/03 09:01:02;;;;;;;46.85;5.50;;;12.80;99.90;;;;;;7382251;19;20028;-79
2024/01/03 09:03:31;;;;;;;45.78;4.97;;;12.80;99.90;;;;;;7382381;19;20055;-80
2024/01/03 09:05:59;;;;;;;41.40;5.40;;;12.70;99.90;;;;;;7408026;19;20118;-78
2024/01/03 09:08:30;;;;;;;41.83;5.30;;;12.80;99.90;;;;;;7391618;19;20020;-78
2024/01/03 09:10:59;;;;;;;39.95;5.53;;;12.90;99.90;;;;;;7386897;19;20011;-78
2024/01/03 09:13:31;;;;;;;41.70;5.70;;;13.00;99.90;;;;;;7395315;19;20074;-82
2024/01/03 09:15:59;;;;;;;40.83;5.63;;;13.10;99.90;;;;;;7401083;19;20026;-81
2024/01/03 09:18:46;;;;;;;34.75;5.93;;;13.20;99.90;;;;;;7391723;19;20026;-82
2024/01/03 09:21:30;;;;;;;;;;;;;;;;;;;;;
2024/01/03 09:24:13;;;;;;;35.88;6.32;;;13.20;99.90;;;;;;7404028;19;20020;-80
2024/01/03 09:29:40;;;;;;;34.55;5.07;;;13.30;99.90;;;;;;7382252;19;20011;-80
2024/01/03 09:32:09;;;;;;;37.17;4.75;;;13.00;99.90;;;;;;7381834;19;20069;-79
2024/01/03 09:34:47;;;;;;;31.92;4.50;;;13.10;99.90;;;;;;7380295;19;20018;-79
2024/01/03 09:37:17;;;;;;;46.85;5.22;;;13.20;99.90;;;;;;7379781;19;20006;-81
2024/01/03 09:39:49;;;;;;;36.00;4.72;;;13.20;99.90;;;;;;7381631;19;20006;-81
2024/01/03 09:42:20;;;;;;;45.00;6.25;;;13.30;99.90;;;;;;7378781;19;20020;-80
2024/01/03 09:44:50;;;;;;;40.28;5.40;;;13.40;99.90;;;;;;7406263;19;20007;-77
2024/01/03 09:47:43;;;;;;;47.05;5.13;;;13.10;99.90;;;;;;7381777;19;20260;-80
2024/01/03 09:50:18;;;;;;;39.85;4.45;;;13.10;99.90;;;;;;7381417;19;20130;-82
2024/01/03 09:52:48;;;;;;;47.75;5.65;;;13.10;99.90;;;;;;7382530;19;20053;-82
2024/01/03 09:55:20;;;;;;;36.47;5.32;;;13.10;99.90;;;;;;7379475;19;20023;-77
2024/01/03 09:57:59;;;;;;;39.60;5.25;;;12.90;99.90;;;;;;7379056;19;20027;-81
2024/01/03 10:00:30;;;;;;;51.50;6.28;;;12.90;99.90;;;;;;7379544;19;20017;-79
2024/01/03 10:03:03;;;;;;;53.00;5.47;;;12.90;99.90;;;;;;7403647;19;20524;-78
2024/01/03 10:05:34;;;;;;;41.22;5.10;;;13.00;99.90;;;;;;7382419;19;20038;-77
2024/01/03 10:08:18;;;;;;;34.63;4.65;;;13.10;99.90;;;;;;7384434;19;20018;-79
2024/01/03 10:10:54;;;;;;;35.65;4.78;;;13.10;99.90;;;;;;7384126;19;20038;-80
2024/01/03 10:13:24;;;;;;;40.60;5.28;;;12.80;99.90;;;;;;7383260;19;20024;-81
2024/01/03 10:15:53;;;;;;;44.47;4.75;;;13.00;99.90;;;;;;7383581;19;20084;-80
2024/01/03 10:18:25;;;;;;;35.42;4.80;;;13.10;99.90;;;;;;7381679;19;20006;-82
2024/01/03 10:20:53;;;;;;;33.78;4.45;;;13.10;99.90;;;;;;7404292;19;20073;-81
2024/01/03 10:24:05;;;;;;;28.00;5.07;;;13.20;99.90;;;;;;7386828;19;20031;-88
2024/01/03 10:27:00;;;;;;;32.92;4.35;;;13.30;99.90;;;;;;7388040;19;20245;-83
2024/01/03 10:29:40;;;;;;;26.00;4.50;;;13.20;99.90;;;;;;7387476;19;20070;-84
2024/01/03 10:32:09;;;;;;;26.35;4.00;;;13.20;99.90;;;;;;7388795;19;20095;-81
2024/01/03 10:35:00;;;;;;;39.42;4.93;;;13.10;99.90;;;;;;7389412;19;20390;-83
2024/01/03 10:40:14;;;;;;;24.35;4.75;;;13.10;99.90;;;;;;7387765;19;20548;-78
2024/01/03 10:42:47;;;;;;;32.47;4.03;;;13.20;99.90;;;;;;7387659;19;20007;-81
2024/01/03 10:45:18;;;;;;;38.65;5.90;;;13.20;99.90;;;;;;7386336;19;20007;-81
2024/01/03 10:47:48;;;;;;;42.08;4.88;;;13.30;99.90;;;;;;7410820;19;20059;-80
2024/01/03 10:50:19;;;;;;;30.58;5.07;;;13.40;99.90;;;;;;7385165;19;20011;-79
2024/01/03 10:52:49;;;;;;;38.92;5.18;;;13.50;99.90;;;;;;7388571;19;20011;-78
2024/01/03 10:55:22;;;;;;;33.28;5.15;;;13.40;99.90;;;;;;7386384;19;20019;-78
2024/01/03 10:58:00;;;;;;;37.53;4.95;;;13.30;99.90;;;;;;7384167;19;20013;-77
2024/01/03 11:00:47;;;;;;;39.78;4.95;;;13.40;99.90;;;;;;7383739;19;20011;-79
2024/01/03 11:03:26;;;;;;;32.17;6.00;;;13.50;99.90;;;;;;7388568;19;20586;-81
2024/01/03 11:06:09;;;;;;;27.77;4.63;;;13.50;99.90;;;;;;7409744;19;20153;-80
2024/01/03 11:08:46;;;;;;;35.05;5.22;;;13.50;99.90;;;;;;7389425;19;20027;-80
2024/01/03 11:11:29;;;;;;;30.25;4.13;;;13.30;99.90;;;;;;7386502;19;20119;-81
2024/01/03 11:14:04;;;;;;;30.55;4.95;;;13.30;99.90;;;;;;7392160;19;20013;-80
2024/01/03 11:16:38;;;;;;;41.35;4.95;;;13.30;99.90;;;;;;7405121;19;20014;-80
2024/01/03 11:19:07;;;;;;;26.95;4.07;;;13.30;99.90;;;;;;7402873;19;20022;-80
2024/01/03 11:21:46;;;;;;;38.45;5.28;;;13.20;99.90;;;;;;7405170;19;20055;-80
2024/01/03 11:24:47;;;;;;;31.67;3.95;;;13.20;99.90;;;;;;7407124;19;20046;-79
2024/01/03 11:27:29;;;;;;;36.65;4.82;;;13.30;99.90;;;;;;7388902;19;20018;-80
2024/01/03 11:33:46;;;;;;;45.45;5.15;;;13.70;99.90;;;;;;7275796;19;2004403;-78
2024/01/03 11:39:41;;;;;;;29.20;4.28;;;13.50;99.90;;;;;;7387820;19;20033;-80
2024/01/03 11:42:22;;;;;;;28.98;4.72;;;13.50;99.90;;;;;;7410730;19;20011;-80
2024/01/03 11:45:15;;;;;;;28.17;4.10;;;13.50;99.90;;;;;;7393210;19;20006;-82
2024/01/03 11:47:48;;;;;;;28.35;4.07;;;13.70;99.90;;;;;;7400447;19;20350;-80
2024/01/03 11:50:19;;;;;;;36.35;4.65;;;13.80;99.90;;;;;;7402697;19;20014;-79
2024/01/03 11:52:51;;;;;;;26.80;4.80;;;13.80;99.90;;;;;;7392275;19;20010;-80
2024/01/03 11:55:23;;;;;;;29.65;4.72;;;13.40;99.90;;;;;;7386771;19;20021;-80
2024/01/03 12:08:18;;;;;;;29.30;4.22;;;13.70;99.90;;;;;;7404359;19;20013;-81
2024/01/03 12:11:00;;;;;;;44.17;5.35;;;13.70;99.90;;;;;;7387739;19;20069;-80
2024/01/03 12:13:33;;;;;;;31.45;4.90;;;13.70;99.90;;;;;;7385831;19;20006;-81
2024/01/03 12:16:09;;;;;;;42.20;5.18;;;13.70;99.90;;;;;;7391075;19;20011;-80
2024/01/03 12:18:50;;;;;;;39.58;5.40;;;13.70;99.90;;;;;;7389610;19;20006;-79
2024/01/03 12:21:21;;;;;;;50.65;5.47;;;13.70;99.90;;;;;;7389620;19;20019;-79
2024/01/03 12:24:04;;;;;;;36.90;5.38;;;13.80;99.90;;;;;;7406967;19;20739;-80
2024/01/03 12:26:32;;;;;;;29.17;4.30;;;13.60;99.90;;;;;;7391953;19;20029;-79
2024/01/03 12:47:47;;;;;;;36.78;4.57;;;13.20;99.90;;;;;;7385681;19;20275;-80
2024/01/03 12:51:04;;;;;;;32.03;4.82;;;12.90;99.90;;;;;;7406726;19;20030;-80
2024/01/03 13:10:53;;;;;;;;;;;;;;;;;;;;;
2024/01/03 13:13:55;;;;;;;;;;;;;;;;;;;;;
2024/01/03 13:19:58;;;;;;;4.57;0.98;;;12.30;99.90;;;;;;7427862;19;20006;-80
2024/01/03 13:23:05;;;;;;;;;;;;;;;;;;;;;
2024/01/03 13:26:04;;;;;;;;;;;;;;;;;;;;;
2024/01/03 13:34:59;;;;;;;8.60;1.10;;;12.70;99.90;;;;;;7416068;19;20037;-81
2024/01/03 13:38:01;;;;;;;6.28;1.17;;;12.30;99.90;;;;;;7415330;19;20018;-80
2024/01/03 13:40:43;;;;;;;;;;;;;;;;;;;;;
2024/01/03 13:44:01;;;;;;;;;;;;;;;;;;;;;
2024/01/03 14:16:33;;;;;;;;;;;;;;;;;;;;;
2024/01/03 14:19:17;;;;;;;;;;;;;;;;;;;;;
2024/01/03 14:22:05;;;;;;;;;;;;;;;;;;;;;
2024/01/03 14:25:28;;;;;;;;;;;;;;;;;;;;;
2024/01/03 14:45:35;;;;;;;9.45;1.58;;;12.40;99.90;;;;;;7421418;19;20017;-80
2024/01/03 14:54:52;;;;;;;11.13;1.77;;;12.50;99.90;;;;;;7433497;19;20024;-79
2024/01/03 14:57:31;;;;;;;6.25;1.45;;;12.60;99.90;;;;;;7416519;19;20013;-79
2024/01/03 15:12:40;;;;;;;19.77;2.35;;;12.70;99.90;;;;;;7445178;19;20382;-78
2024/01/03 15:15:35;;;;;;;;;;;;;;;;;;;;;
2024/01/03 15:18:38;;;;;;;;;;;;;;;;;;;;;
2024/01/03 15:21:11;;;;;;;11.55;2.15;;;12.40;99.90;;;;;;7414431;19;20409;-77
2024/01/03 15:24:28;;;;;;;;;;;;;;;;;;;;;
2024/01/03 15:27:33;;;;;;;12.27;1.75;;;12.30;99.90;;;;;;7429457;19;20036;-79
2024/01/03 15:30:33;;;;;;;15.88;2.45;;;12.40;99.90;;;;;;7456199;19;20017;-84
2024/01/03 15:33:08;;;;;;;8.55;1.60;;;12.40;99.90;;;;;;7411482;19;20018;-78
2024/01/03 15:35:47;;;;;;;12.15;1.98;;;12.50;99.90;;;;;;7424435;19;20007;-77
2024/01/03 15:38:44;;;;;;;10.77;1.92;;;12.70;99.90;;;;;;7435664;19;20035;-80
2024/01/03 15:45:22;;;;;;;11.45;2.17;;;12.50;99.90;;;;;;7436607;19;20014;-81
2024/01/03 15:54:56;;;;;;;;;;;;;;;;;;;;;
2024/01/03 16:01:28;;;;;;;24.20;2.65;;;12.50;99.90;;;;;;7411550;19;20017;-81
2024/01/03 16:04:18;;;;;;;8.95;1.58;;;12.50;99.90;;;;;;7434876;19;20014;-78
2024/01/03 16:13:39;;;;;;;17.88;2.45;;;12.70;99.90;;;;;;7409634;19;20031;-79